Time;durP1;ratioP1;P1;durP2;ratioP2;P2;SDS_P1;SDS_P2;PMS_P1;PMS_P2;Temp;Humidity;BMP_temperature;BMP_pressure;BME280_temperature;BME280_humidity;BME280_pressure;Samples;Min_cycle;Max_cycle;Signal;HPM_P1;HPM_P2
2022/12/30 00:02:15;;;;;;;6.82;4.40;;;;;;;3.91;100.00;101054.75;5248382;28;20027;-63
2022/12/30 00:04:46;;;;;;;11.13;5.68;;;;;;;3.88;100.00;101066.69;5248851;28;20025;-62
2022/12/30 00:07:18;;;;;;;14.85;6.05;;;;;;;3.93;100.00;101064.22;5247790;28;20059;-63
2022/12/30 00:09:48;;;;;;;11.93;5.18;;;;;;;3.92;100.00;101070.59;5248809;28;20035;-63
2022/12/30 00:35:20;;;;;;;11.38;6.03;;;;;;;3.71;100.00;101081.50;5248405;28;20515;-63
2022/12/30 00:37:51;;;;;;;7.43;6.25;;;;;;;3.65;100.00;101074.31;5247699;28;20122;-63
2022/12/30 00:40:21;;;;;;;9.57;5.47;;;;;;;3.77;100.00;101088.66;5248049;28;20021;-64
2022/12/30 00:43:09;;;;;;;18.35;6.65;;;;;;;3.74;100.00;101083.75;5247956;28;20082;-64
2022/12/30 00:45:42;;;;;;;5.50;4.13;;;;;;;3.72;100.00;101094.66;5246812;28;20476;-63
2022/12/30 00:56:42;;;;;;;13.50;7.13;;;;;;;3.79;100.00;101104.50;5290067;28;20039;-63
2022/12/30 00:59:13;;;;;;;22.35;8.30;;;;;;;3.75;100.00;101105.94;5289800;28;20047;-63
2022/12/30 01:01:43;;;;;;;5.18;4.80;;;;;;;3.66;100.00;101094.63;5290173;28;20054;-63
2022/12/30 01:04:13;;;;;;;9.15;4.22;;;;;;;3.72;100.00;101110.66;5290497;28;20479;-63
2022/12/30 01:06:44;;;;;;;8.32;4.93;;;;;;;3.68;100.00;101108.59;5289863;28;20047;-64
2022/12/30 01:09:14;;;;;;;12.05;5.63;;;;;;;3.46;100.00;101067.94;5290033;28;20441;-64
2022/12/30 01:12:07;;;;;;;5.38;4.90;;;;;;;3.62;100.00;101094.22;5290331;28;20051;-63
2022/12/30 01:14:39;;;;;;;6.82;3.65;;;;;;;3.56;100.00;101100.38;5289431;28;20085;-63
2022/12/30 01:17:12;;;;;;;16.45;5.45;;;;;;;3.49;100.00;101088.84;5288530;28;20023;-64
2022/12/30 01:19:42;;;;;;;9.40;7.22;;;;;;;3.42;100.00;101084.56;5289686;28;20023;-64
2022/12/30 01:22:13;;;;;;;11.57;5.50;;;;;;;3.49;100.00;101107.53;5288374;28;20027;-64
2022/12/30 01:24:43;;;;;;;6.88;4.65;;;;;;;3.31;100.00;101083.28;5289517;28;20098;-64
2022/12/30 01:27:14;;;;;;;6.22;4.55;;;;;;;3.48;100.00;101124.59;5289251;28;20027;-64
2022/12/30 01:32:21;;;;;;;8.57;4.35;;;;;;;3.44;100.00;101122.56;5256217;28;20403;-63
2022/12/30 01:34:53;;;;;;;7.70;5.70;;;;;;;3.38;100.00;101125.00;5233843;28;20096;-64
2022/12/30 01:37:24;;;;;;;19.23;5.43;;;;;;;3.39;100.00;101137.31;5225774;28;20069;-64
2022/12/30 01:39:54;;;;;;;9.70;4.30;;;;;;;3.28;100.00;101124.56;5225012;28;20025;-63
2022/12/30 01:42:28;;;;;;;8.85;4.25;;;;;;;3.31;100.00;101150.03;5225035;28;20048;-63
2022/12/30 01:45:14;;;;;;;12.77;4.90;;;;;;;3.24;100.00;101155.34;5225236;28;20170;-63
2022/12/30 01:47:48;;;;;;;7.78;5.80;;;;;;;3.21;100.00;101154.91;5225425;28;20025;-64
2022/12/30 01:50:38;;;;;;;7.97;5.55;;;;;;;3.18;100.00;101155.31;5226132;28;20041;-64
2022/12/30 01:55:55;;;;;;;;;;;;;;;3.09;100.00;101133.34;5471566;23;20056;-91
2022/12/30 01:58:41;;;;;;;22.40;6.32;;;;;;;3.10;100.00;101147.50;5262467;28;19919;-92
2022/12/30 02:01:18;;;;;;;7.78;4.45;;;;;;;3.09;100.00;101177.88;5262061;28;20089;-92
2022/12/30 02:04:00;;;;;;;8.27;6.15;;;;;;;2.43;100.00;101009.59;5261777;28;20047;-91
2022/12/30 02:06:51;;;;;;;8.57;5.80;;;;;;;1.86;100.00;100915.69;5262576;28;20028;-90
2022/12/30 02:09:25;;;;;;;7.82;4.75;;;;;;;2.13;100.00;100985.88;5280736;28;20027;-91
2022/12/30 02:11:57;;;;;;;16.15;5.57;;;;;;;0.86;100.00;100763.72;5279980;28;20048;-91
2022/12/30 02:14:30;;;;;;;5.63;4.32;;;;;;;1.40;100.00;100856.91;5280471;28;20020;-91
2022/12/30 02:17:15;;;;;;;5.60;5.05;;;;;;;2.66;100.00;101077.56;5262528;28;20024;-91
2022/12/30 02:19:55;;;;;;;6.20;5.68;;;;;;;2.47;100.00;101046.31;5262512;28;20100;-91
2022/12/30 02:22:39;;;;;;;10.38;5.72;;;;;;;2.90;100.00;101116.22;5280678;28;20024;-91
2022/12/30 02:25:47;;;;;;;9.02;5.13;;;;;;;2.88;100.00;101120.13;5281060;28;20040;-91
2022/12/30 02:29:01;;;;;;;9.57;6.25;;;;;;;2.60;100.00;101094.34;5276019;28;20061;-91
2022/12/30 02:31:59;;;;;;;5.70;5.13;;;;;;;2.75;100.00;101114.72;5287397;28;20032;-91
2022/12/30 02:34:41;;;;;;;4.13;3.95;;;;;;;2.74;100.00;101097.09;5281366;28;20070;-90
2022/12/30 02:37:39;;;;;;;11.15;5.82;;;;;;;2.76;100.00;101090.53;5262880;28;20503;-92
2022/12/30 02:40:22;;;;;;;9.57;6.10;;;;;;;2.74;100.00;101094.41;5263292;28;20067;-91
2022/12/30 02:46:03;;;;;;;11.35;5.65;;;;;;;2.74;100.00;101083.75;5284657;28;20051;-92
2022/12/30 02:48:36;;;;;;;10.27;5.85;;;;;;;2.51;100.00;101036.91;5266845;28;20043;-92
2022/12/30 02:53:58;;;;;;;11.27;6.63;;;;;;;2.08;100.00;100963.53;5286491;28;20051;-92
2022/12/30 02:56:28;;;;;;;8.15;5.07;;;;;;;2.72;100.00;101078.63;5276160;28;20016;-90
2022/12/30 03:05:01;;;;;;;7.88;5.43;;;;;;;2.26;100.00;100996.63;5298097;28;20093;-89
2022/12/30 03:07:50;;;;;;;10.73;5.10;;;;;;;1.37;100.00;100883.09;5280578;28;20024;-92
2022/12/30 03:11:16;;;;;;;9.23;5.57;;;;;;;2.62;100.00;101060.31;5298405;28;20012;-89
2022/12/30 03:13:47;;;;;;;9.68;4.28;;;;;;;2.21;100.00;100992.91;5297905;28;20058;-90
2022/12/30 03:16:33;;;;;;;11.32;4.85;;;;;;;1.87;100.00;100945.81;5280473;28;20012;-92
2022/12/30 03:19:08;;;;;;;7.55;5.60;;;;;;;1.90;100.00;100927.59;5280229;28;20012;-91
2022/12/30 03:21:40;;;;;;;10.55;5.15;;;;;;;2.06;100.00;100941.59;5280263;28;20039;-92
2022/12/30 03:27:14;;;;;;;6.68;4.85;;;;;;;0.57;100.00;100685.03;5297553;28;20066;-90
2022/12/30 03:29:51;;;;;;;6.13;5.55;;;;;;;2.78;100.00;101048.50;5297709;28;20050;-91
2022/12/30 03:32:22;;;;;;;14.32;6.50;;;;;;;2.76;100.00;101023.03;5278036;22;20048;-69
2022/12/30 03:34:52;;;;;;;9.48;5.45;;;;;;;2.88;100.00;101042.78;5267328;28;20150;-68
2022/12/30 03:37:25;;;;;;;9.85;5.45;;;;;;;2.91;100.00;101042.34;5268287;28;20107;-69
2022/12/30 03:40:04;;;;;;;7.43;6.03;;;;;;;2.92;100.00;101041.34;5250286;28;20020;-68
2022/12/30 03:42:34;;;;;;;18.45;5.25;;;;;;;2.88;100.00;101054.28;5268119;28;20052;-69
2022/12/30 03:45:06;;;;;;;9.10;6.85;;;;;;;2.87;100.00;101052.63;5268316;28;20500;-68
2022/12/30 03:47:36;;;;;;;5.03;4.72;;;;;;;2.86;100.00;101064.31;5267974;28;20036;-68
2022/12/30 03:50:07;;;;;;;9.13;6.57;;;;;;;2.81;100.00;101060.59;5250067;28;20441;-69
2022/12/30 03:52:38;;;;;;;10.15;6.22;;;;;;;2.81;100.00;101060.59;5267573;28;20493;-68
2022/12/30 03:55:08;;;;;;;19.70;8.30;;;;;;;2.69;100.00;101044.34;5268095;28;20099;-69
2022/12/30 03:57:39;;;;;;;13.57;5.55;;;;;;;2.82;100.00;101060.41;5268022;28;20024;-68
2022/12/30 04:00:10;;;;;;;11.85;6.22;;;;;;;2.64;100.00;101033.44;5267912;28;20020;-69
2022/12/30 04:02:40;;;;;;;7.00;5.03;;;;;;;2.77;100.00;101067.34;5267942;28;20435;-68
2022/12/30 04:05:11;;;;;;;10.45;6.15;;;;;;;2.80;100.00;101061.63;5267820;28;20030;-68
2022/12/30 04:07:41;;;;;;;10.70;6.75;;;;;;;2.82;100.00;101055.06;5267653;28;20024;-69
2022/12/30 04:10:11;;;;;;;7.68;6.00;;;;;;;2.80;100.00;101057.13;5249802;28;20020;-68
2022/12/30 04:12:42;;;;;;;6.22;5.68;;;;;;;2.69;100.00;101037.16;5266851;28;20115;-68
2022/12/30 04:15:12;;;;;;;4.88;4.25;;;;;;;2.91;100.00;101053.03;5267574;28;20430;-69
2022/12/30 04:17:42;;;;;;;9.45;5.75;;;;;;;2.95;100.00;101046.28;5267582;28;20020;-69
2022/12/30 04:20:13;;;;;;;5.22;4.78;;;;;;;2.84;100.00;101047.69;5267632;28;20052;-68
2022/12/30 04:22:43;;;;;;;14.27;5.97;;;;;;;2.83;100.00;101042.56;5267200;28;20024;-68
2022/12/30 04:25:13;;;;;;;13.43;5.53;;;;;;;2.68;100.00;101030.19;5267394;28;20468;-68
2022/12/30 04:27:44;;;;;;;22.55;7.57;;;;;;;2.76;100.00;101037.19;5267674;28;20111;-68
2022/12/30 04:30:14;;;;;;;23.50;7.60;;;;;;;2.71;100.00;101037.78;5267554;28;20487;-69
2022/12/30 04:32:45;;;;;;;14.88;6.43;;;;;;;2.71;100.00;101032.47;5267060;28;20054;-68
2022/12/30 04:35:15;;;;;;;7.30;4.97;;;;;;;2.67;100.00;101035.72;5267207;28;20024;-68
2022/12/30 04:37:48;;;;;;;7.18;6.30;;;;;;;2.63;100.00;101029.97;5267249;28;20016;-68
2022/12/30 04:40:19;;;;;;;13.95;7.65;;;;;;;2.76;100.00;101041.72;5267220;28;20100;-68
2022/12/30 04:42:49;;;;;;;13.23;5.43;;;;;;;2.76;100.00;101039.03;5266911;28;20106;-68
2022/12/30 04:45:20;;;;;;;6.65;6.13;;;;;;;2.74;100.00;101036.56;5267166;28;20020;-69
2022/12/30 04:47:50;;;;;;;9.93;5.60;;;;;;;2.75;100.00;101034.72;5267062;28;20028;-69
2022/12/30 04:50:20;;;;;;;7.78;4.82;;;;;;;2.71;100.00;101026.31;5266996;28;20039;-68
2022/12/30 04:52:51;;;;;;;11.27;5.13;;;;;;;2.69;100.00;101031.84;5266584;28;20028;-68
2022/12/30 04:55:21;;;;;;;8.63;6.10;;;;;;;2.75;100.00;101034.72;5266994;28;20032;-69
2022/12/30 04:57:52;;;;;;;22.23;6.50;;;;;;;2.62;100.00;101004.31;5267259;28;20095;-68
2022/12/30 05:00:22;;;;;;;14.02;6.88;;;;;;;2.74;100.00;101017.91;5266723;28;20016;-68
2022/12/30 05:02:52;;;;;;;12.48;6.45;;;;;;;2.76;100.00;101020.38;5266436;28;20107;-69
2022/12/30 05:05:23;;;;;;;12.05;5.68;;;;;;;2.72;100.00;101017.28;5266632;28;20072;-69
2022/12/30 05:07:53;;;;;;;10.43;6.35;;;;;;;2.67;100.00;101019.72;5266649;28;20050;-68
2022/12/30 05:10:24;;;;;;;20.60;6.72;;;;;;;2.63;100.00;101024.63;5266987;28;20034;-70
2022/12/30 05:12:54;;;;;;;10.05;5.93;;;;;;;2.54;100.00;101001.84;5266204;28;20362;-68
2022/12/30 05:15:25;;;;;;;26.85;5.72;;;;;;;2.53;100.00;101016.22;5266441;28;20035;-68
2022/12/30 05:17:55;;;;;;;10.95;5.57;;;;;;;2.54;100.00;101015.19;5266694;28;20016;-69
2022/12/30 05:20:25;;;;;;;18.35;6.63;;;;;;;2.61;100.00;101017.84;5266478;28;20023;-69
2022/12/30 05:22:56;;;;;;;18.77;7.85;;;;;;;2.71;100.00;101027.13;5266157;28;20177;-68
2022/12/30 05:26:26;;;;;;;8.98;6.93;;;;;;;2.73;100.00;101024.25;5265558;28;20032;-68
2022/12/30 05:28:26;;;;;;;10.50;6.75;;;;;;;2.74;100.00;101028.56;5248695;28;20051;-68
2022/12/30 05:30:56;;;;;;;11.30;7.72;;;;;;;2.72;100.00;101036.78;5266892;28;20024;-68
2022/12/30 05:33:26;;;;;;;11.80;6.78;;;;;;;2.76;100.00;101029.19;5265805;28;20035;-69
2022/12/30 05:35:57;;;;;;;17.10;5.65;;;;;;;2.81;100.00;101039.28;5266131;28;20020;-69
2022/12/30 05:38:27;;;;;;;8.45;7.88;;;;;;;2.81;100.00;101028.59;5266462;28;20020;-68
2022/12/30 05:40:58;;;;;;;11.63;6.47;;;;;;;2.84;100.00;101036.22;5266443;28;20472;-68
2022/12/30 05:43:29;;;;;;;14.05;7.95;;;;;;;2.88;100.00;101032.94;5265764;28;20020;-69
2022/12/30 05:45:59;;;;;;;7.65;6.82;;;;;;;2.98;100.00;101027.19;5266181;28;20024;-69
2022/12/30 05:48:29;;;;;;;14.48;6.85;;;;;;;3.02;100.00;101031.94;5266239;28;20052;-68
2022/12/30 05:51:00;;;;;;;7.95;5.85;;;;;;;3.08;100.00;101027.63;5266436;28;20031;-68
2022/12/30 05:53:31;;;;;;;7.38;6.78;;;;;;;3.04;100.00;101015.72;5265971;28;20028;-69
2022/12/30 05:56:03;;;;;;;12.88;7.03;;;;;;;3.10;100.00;101020.25;5266580;28;20028;-69
2022/12/30 05:58:33;;;;;;;10.32;6.47;;;;;;;3.16;100.00;101024.78;5266097;28;20095;-69
2022/12/30 06:01:04;;;;;;;15.13;7.60;;;;;;;3.00;100.00;101012.63;5265958;28;20111;-68
2022/12/30 06:03:35;;;;;;;14.52;7.53;;;;;;;3.15;100.00;101012.47;5247325;28;20024;-68
2022/12/30 06:06:07;;;;;;;16.40;8.65;;;;;;;3.11;100.00;101011.22;5266203;28;20054;-68
2022/12/30 06:08:39;;;;;;;16.17;8.88;;;;;;;3.14;100.00;101000.16;5266039;28;20077;-69
2022/12/30 06:11:09;;;;;;;13.50;8.38;;;;;;;3.16;100.00;100998.09;5265791;28;20031;-66
2022/12/30 06:13:40;;;;;;;13.63;6.53;;;;;;;3.12;100.00;100994.19;5265649;28;20020;-68
2022/12/30 06:16:10;;;;;;;8.43;6.82;;;;;;;3.01;100.00;100970.78;5265814;28;20074;-68
2022/12/30 06:18:40;;;;;;;14.65;8.43;;;;;;;3.10;100.00;100982.06;5265762;28;20031;-68
2022/12/30 06:21:11;;;;;;;10.07;7.68;;;;;;;3.11;100.00;100981.88;5265910;28;20115;-68
2022/12/30 06:23:41;;;;;;;15.30;8.10;;;;;;;3.09;100.00;100970.59;5265369;28;20485;-68
2022/12/30 06:26:11;;;;;;;8.15;7.45;;;;;;;3.13;100.00;100974.50;5265897;28;20028;-68
2022/12/30 06:28:42;;;;;;;12.02;7.88;;;;;;;3.20;100.00;100974.47;5266237;28;20023;-68
2022/12/30 06:31:12;;;;;;;24.42;7.57;;;;;;;3.22;100.00;100975.09;5265842;28;20027;-68
2022/12/30 06:33:43;;;;;;;21.02;7.57;;;;;;;3.23;100.00;100977.56;5265651;28;20467;-68
2022/12/30 06:36:13;;;;;;;14.52;7.60;;;;;;;3.29;100.00;100955.38;5248803;28;20027;-68
2022/12/30 06:38:44;;;;;;;12.23;8.00;;;;;;;3.34;100.00;100952.94;5269762;28;20102;-68
2022/12/30 06:41:14;;;;;;;9.43;8.20;;;;;;;3.37;100.00;100947.19;5251358;28;20056;-68
2022/12/30 06:43:44;;;;;;;11.13;7.53;;;;;;;3.35;100.00;100943.06;5269205;28;20023;-67
2022/12/30 06:46:15;;;;;;;8.68;7.82;;;;;;;3.26;100.00;100918.44;5269510;28;20031;-67
2022/12/30 06:48:45;;;;;;;10.13;6.22;;;;;;;3.43;100.00;100926.03;5269298;28;20109;-67
2022/12/30 06:51:15;;;;;;;19.15;8.25;;;;;;;3.29;100.00;100894.00;5269615;28;20115;-67
2022/12/30 06:53:46;;;;;;;22.40;7.05;;;;;;;3.39;100.00;100913.09;5255573;28;20418;-68
2022/12/30 06:56:16;;;;;;;10.25;6.93;;;;;;;3.47;100.00;100908.53;5268776;28;20034;-68
2022/12/30 06:58:47;;;;;;;7.45;6.75;;;;;;;3.56;100.00;100907.31;5269624;28;20107;-68
2022/12/30 07:01:17;;;;;;;8.98;5.97;;;;;;;3.68;100.00;100901.13;5269074;28;20593;-67
2022/12/30 07:03:47;;;;;;;11.10;7.38;;;;;;;3.78;100.00;100906.00;5268599;28;20027;-68
2022/12/30 07:06:18;;;;;;;11.98;6.03;;;;;;;3.77;100.00;100896.34;5269360;28;20047;-67
2022/12/30 07:08:48;;;;;;;11.98;6.45;;;;;;;3.61;100.00;100883.47;5251142;28;20024;-68
2022/12/30 07:11:18;;;;;;;5.70;5.25;;;;;;;3.73;100.00;100881.81;5269323;28;20468;-68
2022/12/30 07:13:49;;;;;;;5.88;5.43;;;;;;;3.72;100.00;100874.81;5268376;28;20495;-68
2022/12/30 07:16:19;;;;;;;5.53;5.07;;;;;;;3.73;100.00;100871.94;5269120;28;20449;-68
2022/12/30 07:18:50;;;;;;;7.35;5.82;;;;;;;3.72;100.00;100874.81;5269378;28;20081;-68
2022/12/30 07:21:21;;;;;;;17.02;7.40;;;;;;;3.72;100.00;100864.97;5268930;28;20024;-68
2022/12/30 07:23:51;;;;;;;5.30;4.75;;;;;;;3.71;100.00;100860.66;5268456;28;20460;-68
2022/12/30 07:26:21;;;;;;;8.88;5.32;;;;;;;3.77;100.00;100866.97;5268510;28;20063;-68
2022/12/30 07:28:55;;;;;;;7.45;5.20;;;;;;;3.84;100.00;100862.44;5268958;28;20024;-68
2022/12/30 07:31:25;;;;;;;5.60;5.13;;;;;;;3.93;100.00;100849.66;5250473;28;20403;-67
2022/12/30 07:33:56;;;;;;;10.18;7.43;;;;;;;3.91;100.00;100847.19;5268228;28;20028;-67
2022/12/30 07:36:26;;;;;;;6.25;5.43;;;;;;;3.94;100.00;100843.28;5268618;28;20411;-68
2022/12/30 07:38:57;;;;;;;8.23;5.03;;;;;;;3.99;100.00;100844.28;5268608;28;20081;-67
2022/12/30 07:41:28;;;;;;;7.97;6.28;;;;;;;4.00;100.00;100840.59;5268819;28;20020;-68
2022/12/30 07:43:58;;;;;;;7.65;4.50;;;;;;;3.80;100.00;100834.50;5268034;28;20438;-68
2022/12/30 07:46:29;;;;;;;13.25;5.68;;;;;;;4.11;100.00;100831.06;5268223;28;20028;-67
2022/12/30 07:48:59;;;;;;;13.95;5.72;;;;;;;4.23;100.00;100823.19;5267815;28;20024;-68
2022/12/30 07:51:30;;;;;;;6.30;5.70;;;;;;;4.31;100.00;100828.28;5249761;28;20495;-68
2022/12/30 07:54:00;;;;;;;6.63;5.03;;;;;;;4.20;100.00;100799.56;5248763;28;20337;-66
2022/12/30 07:56:30;;;;;;;5.47;4.57;;;;;;;4.39;100.00;100818.13;5246687;28;20211;-68
2022/12/30 07:59:02;;;;;;;7.55;6.05;;;;;;;4.38;100.00;100779.06;5246835;28;20080;-68
2022/12/30 08:01:33;;;;;;;4.53;4.13;;;;;;;4.41;100.00;100772.47;5246871;28;20028;-67
2022/12/30 08:04:04;;;;;;;4.57;4.28;;;;;;;4.50;100.00;100776.53;5246209;28;20392;-68
2022/12/30 08:06:34;;;;;;;5.45;5.03;;;;;;;4.50;100.00;100773.03;5246544;28;20051;-68
2022/12/30 08:09:05;;;;;;;9.40;4.65;;;;;;;4.46;100.00;100761.94;5246549;28;20028;-68
2022/12/30 08:11:37;;;;;;;9.68;5.32;;;;;;;4.53;100.00;100770.75;5246540;28;20021;-68
2022/12/30 08:14:07;;;;;;;4.82;4.43;;;;;;;4.53;100.00;100764.56;5246067;28;20487;-67
2022/12/30 08:16:38;;;;;;;9.40;5.85;;;;;;;4.61;100.00;100770.47;5246493;28;20138;-68
2022/12/30 08:19:08;;;;;;;4.70;4.30;;;;;;;4.62;100.00;100769.41;5246457;28;20021;-68
2022/12/30 08:21:38;;;;;;;5.97;4.03;;;;;;;4.66;100.00;100773.28;5245947;28;20125;-68
2022/12/30 08:24:09;;;;;;;4.45;4.07;;;;;;;4.74;100.00;100753.47;5245686;28;20020;-68
2022/12/30 08:26:39;;;;;;;4.78;4.47;;;;;;;4.81;100.00;100759.59;5245969;28;20020;-68
2022/12/30 08:29:10;;;;;;;4.80;3.97;;;;;;;4.83;100.00;100740.63;5246114;28;20151;-67
2022/12/30 08:31:40;;;;;;;14.20;4.63;;;;;;;4.93;100.00;100748.94;5227760;28;20032;-67
2022/12/30 08:34:10;;;;;;;3.75;3.55;;;;;;;4.94;100.00;100731.84;5245153;28;20051;-67
2022/12/30 08:36:41;;;;;;;3.40;3.20;;;;;;;4.97;100.00;100737.59;5213715;28;20070;-68
2022/12/30 08:39:12;;;;;;;7.00;3.38;;;;;;;5.04;100.00;100724.16;5249566;28;20027;-68
2022/12/30 08:41:45;;;;;;;3.92;2.88;;;;;;;5.08;100.00;100731.50;5251643;28;20158;-69
2022/12/30 08:44:15;;;;;;;5.40;3.80;;;;;;;5.10;100.00;100717.91;5245076;28;20461;-69
2022/12/30 08:46:46;;;;;;;3.50;3.30;;;;;;;5.08;100.00;100698.56;5245305;28;20036;-68
2022/12/30 08:49:16;;;;;;;4.63;3.40;;;;;;;5.12;100.00;100697.09;5245527;28;20035;-66
2022/12/30 08:51:47;;;;;;;3.95;3.65;;;;;;;5.15;100.00;100693.97;5245591;28;20457;-67
2022/12/30 08:54:18;;;;;;;3.55;3.40;;;;;;;5.06;100.00;100668.53;5245189;28;20351;-68
2022/12/30 08:56:48;;;;;;;3.70;3.42;;;;;;;5.27;100.00;100684.13;5245469;28;20143;-67
2022/12/30 08:59:18;;;;;;;11.18;4.55;;;;;;;5.31;100.00;100697.88;5245352;28;20039;-68
2022/12/30 09:01:49;;;;;;;4.32;3.10;;;;;;;5.35;100.00;100681.13;5245174;28;20017;-67
2022/12/30 09:04:19;;;;;;;7.18;4.18;;;;;;;5.43;100.00;100683.50;5245043;28;20115;-67
2022/12/30 09:06:50;;;;;;;4.63;3.42;;;;;;;5.48;100.00;100682.03;5227457;28;20391;-67
2022/12/30 09:09:20;;;;;;;5.43;4.30;;;;;;;5.54;100.00;100684.59;5227394;28;20024;-68
2022/12/30 09:11:50;;;;;;;3.65;3.25;;;;;;;5.60;100.00;100677.50;5226860;28;20031;-67
2022/12/30 09:14:22;;;;;;;7.72;4.07;;;;;;;5.63;100.00;100677.88;5244599;28;20024;-68
2022/12/30 09:16:52;;;;;;;8.80;3.80;;;;;;;5.68;100.00;100677.19;5245314;28;20443;-68
2022/12/30 09:19:23;;;;;;;6.43;4.72;;;;;;;5.68;100.00;100661.94;5245354;28;20112;-68
2022/12/30 09:21:53;;;;;;;8.48;3.13;;;;;;;5.76;100.00;100666.97;5244975;28;20024;-69
2022/12/30 09:24:23;;;;;;;4.18;3.80;;;;;;;5.79;100.00;100663.00;5244958;28;20491;-68
2022/12/30 09:26:54;;;;;;;4.05;3.70;;;;;;;5.87;100.00;100651.13;5241701;28;20083;-68
2022/12/30 09:29:25;;;;;;;7.70;3.47;;;;;;;5.87;100.00;100643.91;5244326;28;20256;-67
2022/12/30 09:31:56;;;;;;;6.05;3.53;;;;;;;5.97;100.00;100644.22;5260655;22;20034;-63
2022/12/30 09:34:27;;;;;;;9.52;3.92;;;;;;;6.04;100.00;100642.25;5282106;28;20147;-62
2022/12/30 09:36:57;;;;;;;6.90;4.38;;;;;;;6.12;100.00;100640.25;5288231;28;20068;-61
2022/12/30 09:39:30;;;;;;;4.40;3.88;;;;;;;6.15;100.00;100634.44;5287761;28;20024;-62
2022/12/30 09:45:16;;;;;;;3.53;3.33;;;;;;;6.27;100.00;100619.16;5287810;28;20027;-63
2022/12/30 09:47:53;;;;;;;7.07;3.88;;;;;;;6.30;100.00;100597.25;5245573;28;20287;-63
2022/12/30 09:50:46;;;;;;;5.50;3.65;;;;;;;6.25;100.00;100581.88;5227789;28;20032;-64
2022/12/30 09:53:38;;;;;;;4.45;3.90;;;;;;;6.37;100.00;100589.88;5245240;28;20108;-63
2022/12/30 09:56:15;;;;;;;4.93;3.85;;;;;;;6.43;100.00;100572.84;5245649;28;20025;-63
2022/12/30 09:58:46;;;;;;;6.95;3.67;;;;;;;6.47;100.00;100567.84;5245890;28;20056;-62
2022/12/30 10:01:25;;;;;;;5.22;3.10;;;;;;;6.48;100.00;100570.28;5245691;28;20488;-63
2022/12/30 10:04:00;;;;;;;3.38;3.17;;;;;;;6.48;100.00;100556.06;5245663;28;20032;-63
2022/12/30 10:06:38;;;;;;;5.63;3.67;;;;;;;6.36;100.00;100518.53;5245458;28;20055;-64
2022/12/30 10:09:24;;;;;;;4.07;3.72;;;;;;;6.53;100.00;100551.63;5245433;28;20033;-62
2022/12/30 10:12:19;;;;;;;6.30;4.05;;;;;;;6.54;100.00;100536.34;5247857;28;20032;-63
2022/12/30 10:14:56;;;;;;;10.65;4.05;;;;;;;6.59;100.00;100536.44;5249608;28;20029;-63
2022/12/30 10:17:53;;;;;;;4.53;4.10;;;;;;;6.60;100.00;100535.41;5249282;28;20099;-63
2022/12/30 10:20:58;;;;;;;3.70;3.30;;;;;;;6.59;100.00;100531.91;5249861;28;20212;-63
2022/12/30 10:23:46;;;;;;;8.32;4.35;;;;;;;6.62;100.00;100533.28;5249115;28;20088;-63
2022/12/30 10:26:30;;;;;;;4.80;4.00;;;;;;;6.66;100.00;100511.09;5249627;28;20516;-63
2022/12/30 10:29:08;;;;;;;5.07;4.50;;;;;;;6.58;100.00;100484.66;5249278;28;20037;-63
2022/12/30 10:31:39;;;;;;;9.07;4.22;;;;;;;6.74;100.00;100485.75;5250294;28;20025;-63
2022/12/30 10:34:17;;;;;;;5.00;4.60;;;;;;;6.80;100.00;100482.13;5250426;28;20157;-64
2022/12/30 10:36:50;;;;;;;4.28;3.97;;;;;;;6.85;100.00;100473.34;5251552;28;20051;-63
2022/12/30 10:39:25;;;;;;;4.18;3.78;;;;;;;6.91;100.00;100475.06;5250852;28;20317;-65
2022/12/30 10:42:07;;;;;;;3.78;3.35;;;;;;;6.93;100.00;100464.91;5250491;28;20020;-64
2022/12/30 10:44:58;;;;;;;6.85;3.53;;;;;;;6.96;100.00;100464.41;5275706;28;20027;-63
2022/12/30 10:47:35;;;;;;;6.95;3.40;;;;;;;6.97;100.00;100456.09;5292655;28;20495;-64
2022/12/30 10:50:30;;;;;;;3.15;3.05;;;;;;;7.02;100.00;100453.50;5292393;28;20035;-64
2022/12/30 10:53:03;;;;;;;10.13;4.45;;;;;;;7.02;100.00;100431.22;5291990;28;20027;-63
2022/12/30 10:55:47;;;;;;;8.20;4.70;;;;;;;7.05;100.00;100425.38;5292230;28;20448;-63
2022/12/30 10:58:33;;;;;;;5.50;3.65;;;;;;;7.14;100.00;100413.19;5292228;28;20364;-65
2022/12/30 11:01:04;;;;;;;5.88;4.28;;;;;;;7.24;100.00;100391.84;5273813;28;20507;-64
2022/12/30 11:03:40;;;;;;;7.95;5.07;;;;;;;7.32;100.00;100386.06;5273206;28;20034;-63
2022/12/30 11:06:18;;;;;;;8.07;4.93;;;;;;;7.44;100.00;100367.16;5292445;28;20132;-65
2022/12/30 11:08:50;;;;;;;11.23;4.57;;;;;;;7.53;100.00;100365.66;5292291;28;20051;-65
2022/12/30 11:14:42;;;;;;;3.95;3.63;;;;;;;7.62;100.00;100352.63;5291992;28;20035;-65
2022/12/30 11:17:15;;;;;;;3.38;3.15;;;;;;;7.70;100.00;100315.38;5292352;28;20112;-64
2022/12/30 11:19:59;;;;;;;5.78;4.03;;;;;;;7.69;100.00;100304.88;5291985;28;20152;-64
2022/12/30 11:22:30;;;;;;;9.13;4.57;;;;;;;7.60;100.00;100282.19;5290874;28;20035;-63
2022/12/30 11:25:24;;;;;;;5.57;3.88;;;;;;;7.73;100.00;100285.31;5291964;28;20030;-64
2022/12/30 11:27:57;;;;;;;3.50;3.28;;;;;;;7.74;100.00;100283.44;5291727;28;20008;-64
2022/12/30 11:30:34;;;;;;;7.20;3.65;;;;;;;7.73;100.00;100266.50;5290643;28;20038;-64
2022/12/30 11:33:17;;;;;;;7.90;4.38;;;;;;;7.72;100.00;100270.25;5290110;28;20491;-64
2022/12/30 11:35:50;;;;;;;3.80;3.58;;;;;;;7.72;100.00;100254.13;5291285;28;20020;-64
2022/12/30 11:38:36;;;;;;;4.88;4.22;;;;;;;7.73;100.00;100250.38;5290378;28;20122;-65
2022/12/30 11:41:19;;;;;;;9.40;4.32;;;;;;;7.74;100.00;100230.50;5291548;28;20495;-65
2022/12/30 11:44:03;;;;;;;9.45;4.25;;;;;;;7.65;100.00;100218.56;5291376;28;20023;-63
2022/12/30 11:46:37;;;;;;;2.88;2.67;;;;;;;7.73;100.00;100223.50;5273384;28;20023;-62
2022/12/30 11:49:35;;;;;;;4.40;3.97;;;;;;;7.73;100.00;100226.19;5291078;28;20479;-64
2022/12/30 11:52:34;;;;;;;5.57;4.50;;;;;;;7.66;100.00;100219.38;5290886;28;20066;-63
2022/12/30 11:55:05;;;;;;;5.18;4.30;;;;;;;7.60;100.00;100215.03;5268480;28;20284;-62
2022/12/30 11:57:42;;;;;;;6.30;4.63;;;;;;;7.58;100.00;100203.72;5290239;28;20423;-63
2022/12/30 12:00:12;;;;;;;7.90;4.38;;;;;;;7.56;100.00;100201.28;5290799;28;20030;-64
2022/12/30 12:02:57;;;;;;;5.65;3.38;;;;;;;7.50;100.00;100188.88;5252438;28;20506;-64
2022/12/30 12:05:39;;;;;;;3.80;3.53;;;;;;;7.43;100.00;100183.69;5230170;28;20123;-64
2022/12/30 12:08:14;;;;;;;3.55;3.28;;;;;;;7.39;100.00;100174.50;5248688;28;20373;-64
2022/12/30 12:10:59;;;;;;;5.57;3.85;;;;;;;7.35;100.00;100170.69;5248047;28;20040;-62
2022/12/30 12:13:32;;;;;;;5.95;3.63;;;;;;;7.32;100.00;100165.00;5247592;28;20503;-63
2022/12/30 12:16:04;;;;;;;5.95;3.50;;;;;;;7.26;100.00;100161.44;5247830;28;20028;-63
2022/12/30 12:18:39;;;;;;;4.90;4.43;;;;;;;7.22;100.00;100152.25;5248282;28;20028;-64
2022/12/30 12:21:14;;;;;;;5.18;3.00;;;;;;;7.21;100.00;100139.94;5247987;28;20484;-64
2022/12/30 12:24:09;;;;;;;3.20;3.00;;;;;;;7.21;100.00;100118.44;5247653;28;20416;-64
2022/12/30 12:26:52;;;;;;;3.65;3.45;;;;;;;7.19;100.00;100092.91;5247350;28;20079;-64
2022/12/30 12:29:23;;;;;;;3.35;3.10;;;;;;;7.28;100.00;100089.50;5247695;28;20059;-63
2022/12/30 12:32:06;;;;;;;9.27;3.60;;;;;;;7.33;100.00;100061.88;5247118;28;20035;-64
2022/12/30 12:35:04;;;;;;;7.10;3.60;;;;;;;7.37;100.00;100044.22;5247157;28;20028;-64
2022/12/30 12:37:49;;;;;;;11.38;4.18;;;;;;;7.37;100.00;100031.59;5247532;28;20048;-64
2022/12/30 12:40:28;;;;;;;5.07;3.47;;;;;;;7.37;100.00;100014.66;5250315;28;20032;-64
2022/12/30 12:43:22;;;;;;;3.13;2.93;;;;;;;7.36;100.00;100011.16;5268294;28;20119;-63
2022/12/30 12:46:12;;;;;;;2.80;2.60;;;;;;;7.35;100.00;99990.75;5250354;28;20034;-64
2022/12/30 12:48:56;;;;;;;2.90;2.78;;;;;;;7.35;100.00;99996.13;5268308;28;20020;-64
2022/12/30 12:51:45;;;;;;;3.55;3.35;;;;;;;7.36;100.00;99976.25;5268273;28;20032;-64
2022/12/30 12:54:34;;;;;;;5.03;3.92;;;;;;;7.37;100.00;99977.88;5268359;28;20464;-64
2022/12/30 12:57:16;;;;;;;3.00;2.80;;;;;;;7.37;100.00;99975.19;5268208;28;20020;-66